createdAt,value
2018-11-13T00:00:08.008Z,89.84
2018-11-13T00:01:08.806Z,89.55
2018-11-13T00:02:09.436Z,88.98
2018-11-13T00:03:09.679Z,89.36
2018-11-13T00:04:11.036Z,89.26
2018-11-13T00:05:11.556Z,89.17
2018-11-13T00:06:12.351Z,88.98
2018-11-13T00:07:12.943Z,88.89
2018-11-13T00:08:14.465Z,89.26
2018-11-13T00:09:15.538Z,89.17
2018-11-13T00:10:16.611Z,89.55
2018-11-13T00:11:18.127Z,89.65
2018-11-13T00:12:18.858Z,88.98
2018-11-13T00:13:20.223Z,89.26
2018-11-13T00:14:20.850Z,88.79
2018-11-13T00:15:21.647Z,88.51
2018-11-13T00:16:23.008Z,88.41
2018-11-13T00:17:23.406Z,88.12
2018-11-13T00:18:24.040Z,88.03
2018-11-13T00:19:24.662Z,87.65
2018-11-13T00:20:25.460Z,87.55
2018-11-13T00:21:26.258Z,87.84
2018-11-13T00:22:27.889Z,87.84
2018-11-13T00:23:28.407Z,87.27
2018-11-13T00:24:29.203Z,87.46
2018-11-13T00:25:29.998Z,87.17
2018-11-13T00:26:30.636Z,87.27
2018-11-13T00:27:31.610Z,87.07
2018-11-13T00:28:32.829Z,86.6
2018-11-13T00:29:33.992Z,86.98
2018-11-13T00:30:35.101Z,87.12
2018-11-13T00:31:35.179Z,86.79
2018-11-13T00:32:35.982Z,87.27
2018-11-13T00:33:37.070Z,87.36
2018-11-13T00:34:37.866Z,86.79
2018-11-13T00:35:38.241Z,86.6
2018-11-13T00:36:39.319Z,86.88
2018-11-13T00:37:40.163Z,86.51
2018-11-13T00:38:40.516Z,86.32
2018-11-13T00:39:41.590Z,86.41
2018-11-13T00:40:42.660Z,86.03
2018-11-13T00:41:43.290Z,85.84
2018-11-13T00:42:44.201Z,85.55
2018-11-13T00:43:44.560Z,85.64
2018-11-13T00:44:44.633Z,85.6
2018-11-13T00:45:46.432Z,85.6
2018-11-13T00:46:46.183Z,85.64
2018-11-13T00:47:47.029Z,85.41
2018-11-13T00:48:47.972Z,85.69
2018-11-13T00:49:49.330Z,85.55
2018-11-13T00:50:50.410Z,85.78
2018-11-13T00:51:51.206Z,86.03
2018-11-13T00:52:52.397Z,86.41
2018-11-13T00:53:53.471Z,86.22
2018-11-13T00:54:54.644Z,86.03
2018-11-13T00:55:54.808Z,86.32
2018-11-13T00:56:56.097Z,85.84
2018-11-13T00:57:57.066Z,85.74
2018-11-13T00:58:57.149Z,86.03
2018-11-13T00:59:58.499Z,86.12
2018-11-13T01:00:59.882Z,86.79
2018-11-13T01:02:01.550Z,86.79
2018-11-13T01:03:02.058Z,87.17
2018-11-13T01:04:03.140Z,87.55
2018-11-13T01:05:04.082Z,87.27
2018-11-13T01:06:04.822Z,87.36
2018-11-13T01:07:05.623Z,87.46
2018-11-13T01:08:06.206Z,87.74
2018-11-13T01:09:07.004Z,86.98
2018-11-13T01:10:08.084Z,87.46
2018-11-13T01:11:09.159Z,87.27
2018-11-13T01:12:10.243Z,87.27
2018-11-13T01:13:11.869Z,87.07
2018-11-13T01:14:12.386Z,87.27
2018-11-13T01:15:13.299Z,87.07
2018-11-13T01:16:13.110Z,87.07
2018-11-13T01:17:14.701Z,87.65
2018-11-13T01:18:15.200Z,87.36
2018-11-13T01:19:16.275Z,86.6
2018-11-13T01:20:17.353Z,86.6
2018-11-13T01:21:18.704Z,86.79
2018-11-13T01:22:19.558Z,86.32
2018-11-13T01:23:20.006Z,86.41
2018-11-13T01:24:20.787Z,86.41
2018-11-13T01:25:21.424Z,87.07
2018-11-13T01:26:21.223Z,86.41
2018-11-13T01:27:22.473Z,86.6
2018-11-13T01:28:23.039Z,86.32
2018-11-13T01:29:24.115Z,86.69
2018-11-13T01:30:25.469Z,86.69
2018-11-13T01:31:26.546Z,86.79
2018-11-13T01:32:27.179Z,86.79
2018-11-13T01:33:27.530Z,86.98
2018-11-13T01:34:29.332Z,87.27
2018-11-13T01:35:29.964Z,87.07
2018-11-13T01:36:31.041Z,87.17
2018-11-13T01:37:31.392Z,87.65
2018-11-13T01:38:32.515Z,87.65
2018-11-13T01:39:33.149Z,87.84
2018-11-13T01:40:33.546Z,88.12
2018-11-13T01:41:34.943Z,87.65
2018-11-13T01:42:35.239Z,87.65
2018-11-13T01:43:36.317Z,87.55
2018-11-13T01:44:37.668Z,87.65
2018-11-13T01:45:37.742Z,88.08
2018-11-13T01:46:38.257Z,87.6
2018-11-13T01:47:39.053Z,88.18
2018-11-13T01:48:39.896Z,88.37
2018-11-13T01:49:42.673Z,88.84
2018-11-13T01:50:42.031Z,88.65
2018-11-13T01:51:43.275Z,88.93
2018-11-13T01:52:44.360Z,89.41
2018-11-13T01:53:45.445Z,89.22
2018-11-13T01:54:46.390Z,89.61
2018-11-13T01:55:47.148Z,90.08
2018-11-13T01:56:47.664Z,89.89
2018-11-13T01:57:48.753Z,90.46
2018-11-13T01:58:49.346Z,90.65
2018-11-13T01:59:49.977Z,91.13
2018-11-13T02:00:50.776Z,91.13
2018-11-13T02:01:52.046Z,91.51
2018-11-13T02:02:52.536Z,91.75
2018-11-13T02:03:53.060Z,91.46
2018-11-13T02:04:54.569Z,91.31
2018-11-13T02:05:54.925Z,91.17
2018-11-13T02:06:55.442Z,90.36
2018-11-13T02:07:56.627Z,89.89
2018-11-13T02:08:57.751Z,89.61
2018-11-13T02:09:57.829Z,89.51
2018-11-13T02:10:58.907Z,88.56
2018-11-13T02:11:58.985Z,88.37
2018-11-13T02:13:00.785Z,87.89
2018-11-13T02:14:01.583Z,88.12
2018-11-13T02:15:02.664Z,87.51
2018-11-13T02:16:03.458Z,87.27
2018-11-13T02:17:04.253Z,87.07
2018-11-13T02:18:05.050Z,87.36
2018-11-13T02:19:05.449Z,87.07
2018-11-13T02:20:05.966Z,87.36
2018-11-13T02:21:06.765Z,87.36
2018-11-13T02:22:07.288Z,86.69
2018-11-13T02:23:08.088Z,86.69
2018-11-13T02:24:08.991Z,86.6
2018-11-13T02:25:09.513Z,86.32
2018-11-13T02:26:10.038Z,86.51
2018-11-13T02:27:10.558Z,86.32
2018-11-13T02:28:11.187Z,86.12
2018-11-13T02:29:11.777Z,86.22
2018-11-13T02:30:12.856Z,85.74
2018-11-13T02:31:14.346Z,86.22
2018-11-13T02:32:15.700Z,85.36
2018-11-13T02:33:15.778Z,85.27
2018-11-13T02:34:16.690Z,85.17
2018-11-13T02:35:17.722Z,84.98
2018-11-13T02:36:17.876Z,84.79
2018-11-13T02:37:18.722Z,84.88
2018-11-13T02:38:19.239Z,84.6
2018-11-13T02:39:19.921Z,84.69
2018-11-13T02:40:20.717Z,84.5
2018-11-13T02:41:21.080Z,83.93
2018-11-13T02:42:22.431Z,83.65
2018-11-13T02:43:23.506Z,83.36
2018-11-13T02:44:23.748Z,83.36
2018-11-13T02:45:24.883Z,82.89
2018-11-13T02:46:25.958Z,82.69
2018-11-13T02:47:26.754Z,82.69
2018-11-13T02:48:27.956Z,82.79
2018-11-13T02:49:28.082Z,82.5
2018-11-13T02:50:29.158Z,83.07
2018-11-13T02:51:30.244Z,82.89
2018-11-13T02:52:30.893Z,83.26
2018-11-13T02:53:31.969Z,82.5
2018-11-13T02:54:32.768Z,82.89
2018-11-13T02:55:34.118Z,83.02
2018-11-13T02:56:34.921Z,82.21
2018-11-13T02:57:36.007Z,81.97
2018-11-13T02:58:36.809Z,81.84
2018-11-13T02:59:37.657Z,81.21
2018-11-13T03:00:38.470Z,81.93
2018-11-13T03:01:39.544Z,81.49
2018-11-13T03:02:41.473Z,81.4
2018-11-13T03:03:41.548Z,81.68
2018-11-13T03:04:42.623Z,81.49
2018-11-13T03:05:43.699Z,81.49
2018-11-13T03:06:44.775Z,81.3
2018-11-13T03:07:45.448Z,81.59
2018-11-13T03:08:46.525Z,81.02
2018-11-13T03:09:46.928Z,81.4
2018-11-13T03:10:47.724Z,80.44
2018-11-13T03:11:48.812Z,80.16
2018-11-13T03:12:49.893Z,80.16
2018-11-13T03:13:51.831Z,80.35
2018-11-13T03:14:51.867Z,80.16
2018-11-13T03:15:52.943Z,80.16
2018-11-13T03:16:53.574Z,80.26
2018-11-13T03:17:54.394Z,79.88
2018-11-13T03:18:54.912Z,79.68
2018-11-13T03:19:56.316Z,79.88
2018-11-13T03:20:56.838Z,79.88
2018-11-13T03:21:57.191Z,79.49
2018-11-13T03:22:57.989Z,79.88
2018-11-13T03:23:59.390Z,79.88
2018-11-13T03:24:59.467Z,79.97
2018-11-13T03:25:59.820Z,79.4
2018-11-13T03:27:00.452Z,79.4
2018-11-13T03:28:01.265Z,79.97
2018-11-13T03:29:02.632Z,79.78
2018-11-13T03:30:03.309Z,79.59
2018-11-13T03:31:04.555Z,79.97
2018-11-13T03:32:05.482Z,79.88
2018-11-13T03:33:06.952Z,79.78
2018-11-13T03:34:07.308Z,79.78
2018-11-13T03:35:08.933Z,80.26
2018-11-13T03:36:08.729Z,80.35
2018-11-13T03:37:09.818Z,80.35
2018-11-13T03:38:11.730Z,80.44
2018-11-13T03:39:12.087Z,81.12
2018-11-13T03:40:13.065Z,81.07
2018-11-13T03:41:13.432Z,81.74
2018-11-13T03:42:14.228Z,81.55
2018-11-13T03:43:15.304Z,81.93
2018-11-13T03:44:15.384Z,82.12
2018-11-13T03:45:16.184Z,82.5
2018-11-13T03:46:17.258Z,82.41
2018-11-13T03:47:18.057Z,82.98
2018-11-13T03:48:18.853Z,83.36
2018-11-13T03:49:19.934Z,83.36
2018-11-13T03:50:20.692Z,83.17
2018-11-13T03:51:21.597Z,83.7
2018-11-13T03:52:22.963Z,83.84
2018-11-13T03:53:23.055Z,83.84
2018-11-13T03:54:24.128Z,83.55
2018-11-13T03:55:24.773Z,83.55
2018-11-13T03:56:25.403Z,83.65
2018-11-13T03:57:26.478Z,83.84
2018-11-13T03:58:27.386Z,83.84
2018-11-13T03:59:27.463Z,83.55
2018-11-13T04:00:28.457Z,83.36
2018-11-13T04:01:29.096Z,83.17
2018-11-13T04:02:28.896Z,82.79
2018-11-13T04:03:29.709Z,82.79
2018-11-13T04:04:30.504Z,82.98
2018-11-13T04:05:31.866Z,82.6
2018-11-13T04:06:32.498Z,82.41
2018-11-13T04:07:33.300Z,82.12
2018-11-13T04:08:33.936Z,81.93
2018-11-13T04:09:35.287Z,81.74
2018-11-13T04:10:36.449Z,81.93
2018-11-13T04:11:37.076Z,82.5
2018-11-13T04:12:37.707Z,82.79
2018-11-13T04:13:39.080Z,83.84
2018-11-13T04:14:39.436Z,83.84
2018-11-13T04:15:40.786Z,84.03
2018-11-13T04:16:41.419Z,83.93
2018-11-13T04:17:42.051Z,83.74
2018-11-13T04:18:43.125Z,83.45
2018-11-13T04:19:43.276Z,83.07
2018-11-13T04:20:43.988Z,82.89
2018-11-13T04:21:45.354Z,82.89
2018-11-13T04:22:57.837Z,82.69
2018-11-13T04:23:58.961Z,82.98
2018-11-13T04:24:59.757Z,83.45
2018-11-13T04:26:00.409Z,83.93
2018-11-13T04:27:00.929Z,84.88
2018-11-13T04:28:02.008Z,85.13
2018-11-13T04:29:02.080Z,85.6
2018-11-13T04:30:03.170Z,85.51
2018-11-13T04:31:04.525Z,86.18
2018-11-13T04:32:04.892Z,86.18
2018-11-13T04:33:05.592Z,85.6
2018-11-13T04:34:06.173Z,85.6
2018-11-13T04:35:07.254Z,85.6
2018-11-13T04:36:08.179Z,85.32
2018-11-13T04:37:09.103Z,85.32
2018-11-13T04:38:09.179Z,83.61
2018-11-13T04:39:10.531Z,82.93
2018-11-13T04:40:11.605Z,82.98
2018-11-13T04:41:12.403Z,84.03
2018-11-13T04:42:13.201Z,83.65
2018-11-13T04:43:13.281Z,83.45
2018-11-13T04:44:14.411Z,83.07
2018-11-13T04:45:15.481Z,82.79
2018-11-13T04:46:16.001Z,82.5
2018-11-13T04:47:16.635Z,81.65
2018-11-13T04:48:16.712Z,82.79
2018-11-13T04:49:17.785Z,81.26
2018-11-13T04:50:18.585Z,81.84
2018-11-13T04:51:19.166Z,82.69
2018-11-13T04:52:20.016Z,83.07
2018-11-13T04:53:21.093Z,82.21
2018-11-13T04:54:22.090Z,81.93
2018-11-13T04:55:23.172Z,81.17
2018-11-13T04:56:23.969Z,80.98
2018-11-13T04:57:25.044Z,81.07
2018-11-13T04:58:25.841Z,80.41
2018-11-13T04:59:26.639Z,80.79
2018-11-13T05:00:27.267Z,81.17
2018-11-13T05:01:28.342Z,81.36
2018-11-13T05:02:28.419Z,81.84
2018-11-13T05:03:29.941Z,81.46
2018-11-13T05:04:30.507Z,81.84
2018-11-13T05:05:32.141Z,82.6
2018-11-13T05:06:31.939Z,82.79
2018-11-13T05:07:33.455Z,82.98
2018-11-13T05:08:33.972Z,83.26
2018-11-13T05:09:34.325Z,83.65
2018-11-13T05:10:34.842Z,84.31
2018-11-13T05:11:35.362Z,84.03
2018-11-13T05:12:35.884Z,83.98
2018-11-13T05:13:36.961Z,84.46
2018-11-13T05:14:37.088Z,84.36
2018-11-13T05:15:38.757Z,84.65
2018-11-13T05:16:39.675Z,84.65
2018-11-13T05:17:39.869Z,84.94
2018-11-13T05:18:40.507Z,84.56
2018-11-13T05:19:41.866Z,84.65
2018-11-13T05:20:42.513Z,85.13
2018-11-13T05:21:42.877Z,85.03
2018-11-13T05:22:43.229Z,84.94
2018-11-13T05:23:43.751Z,85.13
2018-11-13T05:24:44.615Z,84.94
2018-11-13T05:25:44.969Z,84.94
2018-11-13T05:26:45.486Z,85.22
2018-11-13T05:27:46.845Z,85.6
2018-11-13T05:28:46.920Z,85.89
2018-11-13T05:29:47.716Z,86.08
2018-11-13T05:30:48.788Z,86.18
2018-11-13T05:31:49.863Z,86.94
2018-11-13T05:32:51.230Z,86.84
2018-11-13T05:33:51.751Z,86.65
2018-11-13T05:34:52.341Z,86.55
2018-11-13T05:35:52.706Z,86.94
2018-11-13T05:36:52.782Z,85.22
2018-11-13T05:37:53.855Z,84.84
2018-11-13T05:38:54.934Z,84.17
2018-11-13T05:39:56.283Z,84.03
2018-11-13T05:40:56.801Z,83.41
2018-11-13T05:41:57.598Z,83.07
2018-11-13T05:42:58.673Z,82.69
2018-11-13T05:44:00.024Z,82.41
2018-11-13T05:45:00.147Z,82.12
2018-11-13T05:46:01.342Z,82.21
2018-11-13T05:47:02.232Z,82.21
2018-11-13T05:48:02.438Z,82.12
2018-11-13T05:49:02.957Z,82.12
2018-11-13T05:50:03.754Z,82.03
2018-11-13T05:51:04.380Z,81.84
2018-11-13T05:52:05.178Z,81.65
2018-11-13T05:53:06.092Z,81.93
2018-11-13T05:54:06.888Z,82.31
2018-11-13T05:55:08.042Z,82.41
2018-11-13T05:56:08.393Z,82.31
2018-11-13T05:57:09.196Z,82.89
2018-11-13T05:58:10.270Z,82.41
2018-11-13T05:59:10.787Z,82.31
2018-11-13T06:00:11.329Z,82.12
2018-11-13T06:01:12.971Z,83.26
2018-11-13T06:02:13.604Z,82.12
2018-11-13T06:03:14.679Z,81.74
2018-11-13T06:04:15.316Z,81.74
2018-11-13T06:05:15.602Z,81.84
2018-11-13T06:06:16.462Z,82.03
2018-11-13T06:07:17.265Z,82.21
2018-11-13T06:08:19.184Z,82.12
2018-11-13T06:09:19.338Z,82.21
2018-11-13T06:10:20.417Z,82.31
2018-11-13T06:11:22.325Z,82.21
2018-11-13T06:12:22.844Z,82.12
2018-11-13T06:13:23.929Z,82.21
2018-11-13T06:14:24.732Z,82.41
2018-11-13T06:15:25.293Z,82.12
2018-11-13T06:16:26.536Z,82.03
2018-11-13T06:17:27.346Z,82.31
2018-11-13T06:18:28.541Z,82.12
2018-11-13T06:19:29.343Z,82.31
2018-11-13T06:20:31.426Z,82.5
2018-11-13T06:21:32.227Z,83.07
2018-11-13T06:22:33.319Z,83.07
2018-11-13T06:23:34.673Z,82.31
2018-11-13T06:24:34.473Z,82.6
2018-11-13T06:25:35.645Z,82.31
2018-11-13T06:26:35.731Z,82.31
2018-11-13T06:27:36.255Z,82.5
2018-11-13T06:28:37.201Z,82.6
2018-11-13T06:29:38.522Z,82.79
2018-11-13T06:30:38.860Z,83.07
2018-11-13T06:31:39.943Z,82.79
2018-11-13T06:32:40.298Z,82.98
2018-11-13T06:33:41.659Z,83.07
2018-11-13T06:34:42.741Z,83.13
2018-11-13T06:35:44.175Z,83.61
2018-11-13T06:36:44.809Z,83.55
2018-11-13T06:37:45.740Z,83.51
2018-11-13T06:38:46.375Z,84.27
2018-11-13T06:39:47.603Z,83.98
2018-11-13T06:40:48.958Z,84.17
2018-11-13T06:41:49.760Z,84.27
2018-11-13T06:42:50.565Z,84.56
2018-11-13T06:43:51.644Z,84.27
2018-11-13T06:44:52.444Z,84.94
2018-11-13T06:45:53.602Z,85.51
2018-11-13T06:46:54.406Z,85.32
2018-11-13T06:47:54.923Z,85.51
2018-11-13T06:48:56.527Z,87.51
2018-11-13T06:49:55.863Z,88.18
2018-11-13T06:50:56.253Z,87.89
2018-11-13T06:51:57.643Z,88.93
2018-11-13T06:52:58.587Z,89.51
2018-11-13T06:53:59.114Z,90.17
2018-11-13T06:55:00.313Z,89.41
2018-11-13T06:56:00.746Z,89.61
2018-11-13T06:57:01.826Z,88.65
2018-11-13T06:58:03.290Z,88.93
2018-11-13T06:59:03.949Z,89.22
2018-11-13T07:00:04.044Z,88.75
2018-11-13T07:01:05.123Z,88.93
2018-11-13T07:02:05.495Z,89.61
2018-11-13T07:03:06.502Z,89.61
2018-11-13T07:04:07.606Z,87.98
2018-11-13T07:05:09.198Z,85.99
2018-11-13T07:06:09.444Z,85.7
2018-11-13T07:07:10.435Z,85.64
2018-11-13T07:08:11.515Z,85.84
2018-11-13T07:09:12.324Z,84.69
2018-11-13T07:10:13.426Z,83.93
2018-11-13T07:11:14.470Z,85.08
2018-11-13T07:12:15.477Z,84.31
2018-11-13T07:13:16.309Z,83.74
2018-11-13T07:14:17.131Z,83.65
2018-11-13T07:15:18.232Z,83.45
2018-11-13T07:16:19.294Z,83.36
2018-11-13T07:17:19.664Z,82.98
2018-11-13T07:18:20.055Z,83.45
2018-11-13T07:19:21.298Z,82.98
2018-11-13T07:20:21.475Z,82.17
2018-11-13T07:21:22.707Z,82.26
2018-11-13T07:22:22.803Z,81.3
2018-11-13T07:23:23.606Z,81.4
2018-11-13T07:24:25.079Z,81.78
2018-11-13T07:25:27.048Z,82.07
2018-11-13T07:26:27.525Z,82.07
2018-11-13T07:27:29.364Z,80.35
2018-11-13T07:28:29.389Z,80.64
2018-11-13T07:29:30.197Z,80.35
2018-11-13T07:30:31.115Z,80.35
2018-11-13T07:31:31.928Z,80.68
2018-11-13T07:32:33.009Z,79.63
2018-11-13T07:33:34.161Z,79.35
2018-11-13T07:34:34.952Z,79.91
2018-11-13T07:35:36.216Z,79.35
2018-11-13T07:36:36.076Z,78.49
2018-11-13T07:37:37.435Z,77.62
2018-11-13T07:38:38.984Z,77.72
2018-11-13T07:39:40.371Z,77.57
2018-11-13T07:40:40.616Z,74.61
2018-11-13T07:41:41.700Z,74.27
2018-11-13T07:42:42.501Z,74.55
2018-11-13T07:43:43.141Z,73.79
2018-11-13T07:44:43.949Z,72.68
2018-11-13T07:45:45.200Z,71.44
2018-11-13T07:46:47.101Z,70.52
2018-11-13T07:47:48.727Z,70.04
2018-11-13T07:48:48.253Z,68.26
2018-11-13T07:49:49.052Z,66.35
2018-11-13T07:50:49.862Z,66.76
2018-11-13T07:51:50.667Z,66.38
2018-11-13T07:52:51.751Z,65.45
2018-11-13T07:53:53.512Z,64.31
2018-11-13T07:54:53.098Z,62.4
2018-11-13T07:55:53.602Z,62.71
2018-11-13T07:56:54.179Z,63.39
2018-11-13T07:57:54.707Z,64.66
2018-11-13T07:58:55.961Z,65.33
2018-11-13T07:59:57.323Z,66.19
2018-11-13T08:00:57.408Z,66.09
2018-11-13T08:01:58.493Z,66.73
2018-11-13T08:02:59.019Z,67.69
2018-11-13T08:04:01.856Z,68.35
2018-11-13T08:05:02.832Z,69.09
2018-11-13T08:05:13.676Z,68.9
2018-11-13T08:06:14.694Z,69.66
2018-11-13T08:07:16.019Z,70.81
2018-11-13T08:08:16.304Z,71
2018-11-13T08:09:17.697Z,71.25
2018-11-13T08:10:19.080Z,70.52
2018-11-13T08:11:18.888Z,69.66
2018-11-13T08:12:20.171Z,69.31
2018-11-13T08:13:22.430Z,68.55
2018-11-13T08:14:22.116Z,67.49
2018-11-13T08:15:23.198Z,66.38
2018-11-13T08:16:25.063Z,65.84
2018-11-13T08:17:24.819Z,66.89
2018-11-13T08:18:27.220Z,63.93
2018-11-13T08:19:27.411Z,63.93
2018-11-13T08:20:27.499Z,63
2018-11-13T08:21:28.749Z,64.53
2018-11-13T08:22:29.293Z,65.3
2018-11-13T08:23:30.977Z,66.13
2018-11-13T08:24:31.794Z,65.45
2018-11-13T08:25:32.805Z,64.02
2018-11-13T08:26:33.373Z,63.54
2018-11-13T08:27:33.940Z,64.22
2018-11-13T08:28:34.872Z,65.94
2018-11-13T08:29:36.674Z,65.36
2018-11-13T08:30:37.952Z,64.95
2018-11-13T08:31:38.762Z,64.66
2018-11-13T08:32:39.130Z,64.28
2018-11-13T08:33:39.777Z,64.66
2018-11-13T08:34:41.294Z,66.19
2018-11-13T08:35:42.389Z,66.38
2018-11-13T08:36:42.616Z,67.3
2018-11-13T08:37:42.870Z,67.11
2018-11-13T08:38:43.555Z,67.46
2018-11-13T08:39:44.640Z,67.94
2018-11-13T08:40:45.728Z,69.27
2018-11-13T08:41:45.983Z,68.61
2018-11-13T08:42:46.895Z,67.84
2018-11-13T08:43:47.420Z,67.94
2018-11-13T08:44:48.441Z,68.23
2018-11-13T08:45:48.965Z,68.07
2018-11-13T08:46:49.823Z,67.88
2018-11-13T08:47:50.903Z,67.59
2018-11-13T08:48:51.428Z,67.05
2018-11-13T08:49:52.237Z,67.72
2018-11-13T08:50:53.826Z,67.63
2018-11-13T08:51:53.748Z,68.26
2018-11-13T08:52:54.681Z,68.35
2018-11-13T08:53:54.879Z,68.35
2018-11-13T08:54:55.966Z,69.27
2018-11-13T08:55:56.773Z,69.47
2018-11-13T08:56:58.579Z,69.7
2018-11-13T08:57:59.503Z,69.21
2018-11-13T08:59:00.886Z,69.6
2018-11-13T09:00:01.455Z,70.36
2018-11-13T09:01:02.098Z,69.89
2018-11-13T09:02:02.627Z,69.98
2018-11-13T09:03:03.712Z,70.07
2018-11-13T09:04:05.091Z,71.7
2018-11-13T09:05:06.396Z,69.98
2018-11-13T09:06:05.974Z,70.07
2018-11-13T09:07:06.568Z,71.19
2018-11-13T09:08:06.820Z,69.31
2018-11-13T09:09:07.900Z,68.93
2018-11-13T09:10:08.706Z,69.02
2018-11-13T09:11:09.660Z,69.31
2018-11-13T09:12:11.030Z,67.43
2018-11-13T09:13:11.359Z,66.28
2018-11-13T09:14:11.891Z,66.41
2018-11-13T09:15:13.012Z,66.13
2018-11-13T09:16:13.651Z,64.25
2018-11-13T09:17:14.789Z,64.92
2018-11-13T09:18:15.096Z,64.76
2018-11-13T09:19:17.034Z,65.52
2018-11-13T09:20:17.455Z,64.37
2018-11-13T09:21:18.592Z,63.42
2018-11-13T09:22:19.406Z,63.7
2018-11-13T09:23:19.941Z,66.29
2018-11-13T09:24:21.422Z,64.12
2018-11-13T09:25:22.218Z,63.6
2018-11-13T09:26:23.418Z,62.39
2018-11-13T09:27:24.366Z,62.49
2018-11-13T09:28:25.175Z,62.77
2018-11-13T09:29:26.006Z,63.92
2018-11-13T09:30:28.233Z,64.34
2018-11-13T09:31:29.770Z,60.79
2018-11-13T09:32:29.981Z,61.18
2018-11-13T09:33:31.480Z,62.23
2018-11-13T09:34:31.740Z,62.71
2018-11-13T09:35:31.992Z,61.66
2018-11-13T09:36:32.534Z,60.92
2018-11-13T09:37:34.809Z,62.07
2018-11-13T09:38:34.925Z,61.59
2018-11-13T09:39:35.462Z,60.95
2018-11-13T09:40:35.827Z,59.44
2018-11-13T09:41:37.195Z,60.31
2018-11-13T09:42:37.730Z,58.96
2018-11-13T09:43:38.819Z,57.65
2018-11-13T09:44:40.089Z,57.75
2018-11-13T09:45:40.957Z,57.55
2018-11-13T09:46:41.512Z,57.65
2018-11-13T09:47:43.137Z,58.03
2018-11-13T09:48:43.414Z,58.2
2018-11-13T09:49:44.730Z,59.16
2018-11-13T09:50:46.299Z,60.38
2018-11-13T09:51:46.342Z,59.54
2018-11-13T09:52:47.163Z,58.67
2018-11-13T09:53:49.737Z,57.84
2018-11-13T09:54:49.301Z,57.2
2018-11-13T09:55:49.924Z,56.91
2018-11-13T09:56:51.333Z,57.1
2018-11-13T09:57:52.345Z,56.43
2018-11-13T09:58:52.781Z,58.45
2018-11-13T09:59:54.295Z,56.91
2018-11-13T10:00:56.146Z,57.03
2018-11-13T10:01:58.506Z,57.9
2018-11-13T10:02:09.693Z,57.99
2018-11-13T10:02:22.320Z,57.83
2018-11-13T10:02:33.362Z,57.8
2018-11-13T10:02:46.376Z,57.06
2018-11-13T10:02:59.910Z,56.38
2018-11-13T10:03:10.725Z,56.58
2018-11-13T10:03:22.894Z,56.1
2018-11-13T10:03:33.951Z,56.38
2018-11-13T10:04:35.486Z,55.52
2018-11-13T10:05:35.241Z,55.35
2018-11-13T10:06:35.345Z,54.39
2018-11-13T10:07:36.214Z,54.32
2018-11-13T10:08:37.306Z,53.29
2018-11-13T10:09:38.506Z,52.81
2018-11-13T10:10:39.714Z,52.33
2018-11-13T10:11:39.502Z,51.94
2018-11-13T10:12:40.439Z,51.89
2018-11-13T10:13:41.486Z,52.28
2018-11-13T10:14:41.795Z,51.34
2018-11-13T10:15:42.528Z,51.41
2018-11-13T10:16:43.763Z,53.51
2018-11-13T10:17:45.503Z,54.25
2018-11-13T10:18:45.841Z,55
2018-11-13T10:19:46.828Z,56.7
2018-11-13T10:20:48.192Z,58.4
2018-11-13T10:21:49.300Z,57.51
2018-11-13T10:22:50.138Z,58.09
2018-11-13T10:23:51.801Z,59.82
2018-11-13T10:24:52.061Z,60.85
2018-11-13T10:25:52.681Z,61.78
2018-11-13T10:26:53.217Z,62.81
2018-11-13T10:27:54.329Z,63.09
2018-11-13T10:28:55.251Z,63.54
2018-11-13T10:29:55.852Z,64.31
2018-11-13T10:30:56.417Z,65.17
2018-11-13T10:31:57.021Z,64.76
2018-11-13T10:32:58.108Z,64.95
2018-11-13T10:33:58.653Z,64.89
2018-11-13T10:34:59.518Z,65.33
2018-11-13T10:36:00.603Z,66.29
2018-11-13T10:37:01.916Z,67.06
2018-11-13T10:38:02.790Z,67.83
2018-11-13T10:39:03.710Z,68.08
2018-11-13T10:40:05.267Z,68.08
2018-11-13T10:41:05.770Z,67.89
2018-11-13T10:42:06.794Z,69.42
2018-11-13T10:43:08.204Z,69.04
2018-11-13T10:44:08.726Z,69.9
2018-11-13T10:45:09.939Z,70.19
2018-11-13T10:46:11.313Z,69.52
2018-11-13T10:47:11.725Z,69.81
2018-11-13T10:48:11.812Z,70.15
2018-11-13T10:49:13.786Z,70.64
2018-11-13T10:50:14.060Z,71.02
2018-11-13T10:51:15.068Z,71.37
2018-11-13T10:52:16.182Z,71.98
2018-11-13T10:53:17.434Z,72.42
2018-11-13T10:54:18.966Z,73.41
2018-11-13T10:55:20.013Z,73.41
2018-11-13T10:56:21.348Z,74.57
2018-11-13T10:57:22.997Z,74.72
2018-11-13T10:58:23.851Z,75.58
2018-11-13T10:59:26.561Z,77.02
2018-11-13T11:00:27.196Z,78.51
2018-11-13T11:01:28.455Z,78.89
2018-11-13T11:02:29.726Z,79.28
2018-11-13T11:03:30.171Z,79.81
2018-11-13T11:04:32.364Z,80.38
2018-11-13T11:05:31.473Z,80.67
2018-11-13T11:06:32.998Z,80.96
2018-11-13T11:07:33.244Z,80.77
2018-11-13T11:08:34.056Z,80.96
2018-11-13T11:09:35.203Z,81.34
2018-11-13T11:10:36.350Z,81.54
2018-11-13T11:11:37.132Z,81.73
2018-11-13T11:12:37.962Z,82.49
2018-11-13T11:13:40.315Z,82.3
2018-11-13T11:14:41.114Z,83.26
2018-11-13T11:15:42.253Z,83.79
2018-11-13T11:16:43.739Z,84.94
2018-11-13T11:17:44.654Z,85.8
2018-11-13T11:18:46.054Z,86.76
2018-11-13T11:19:45.774Z,87.09
2018-11-13T11:20:47.030Z,86.52
2018-11-13T11:21:48.279Z,87.57
2018-11-13T11:22:50.950Z,87.76
2018-11-13T11:23:50.888Z,87.29
2018-11-13T11:24:51.377Z,87
2018-11-13T11:25:53.532Z,86.43
2018-11-13T11:26:53.172Z,87.76
2018-11-13T11:27:54.756Z,87.19
2018-11-13T11:28:55.377Z,87.76
2018-11-13T11:29:56.204Z,87.57
2018-11-13T11:30:57.435Z,87.29
2018-11-13T11:31:57.639Z,87.66
2018-11-13T11:32:58.453Z,87.86
2018-11-13T11:33:58.704Z,88.24
2018-11-13T11:34:59.536Z,89.01
2018-11-13T11:36:00.679Z,88.43
2018-11-13T11:37:01.373Z,89.29
2018-11-13T11:38:02.184Z,89.77
2018-11-13T11:39:04.454Z,89.34
2018-11-13T11:40:04.514Z,90.3
2018-11-13T11:41:05.682Z,90.73
2018-11-13T11:42:06.484Z,91.06
2018-11-13T11:43:08.127Z,91.45
2018-11-13T11:44:09.187Z,92.02
2018-11-13T11:45:10.190Z,92.16
2018-11-13T11:46:10.483Z,91.78
2018-11-13T11:47:11.282Z,92.55
2018-11-13T11:48:12.089Z,92.45
2018-11-13T11:49:12.898Z,92.83
2018-11-13T11:50:14.491Z,92.6
2018-11-13T11:51:15.233Z,91.55
2018-11-13T11:52:15.991Z,91.16
2018-11-13T11:53:17.472Z,92.02
2018-11-13T11:54:17.839Z,91.83
2018-11-13T11:55:18.556Z,91.16
2018-11-13T11:56:19.725Z,90.78
2018-11-13T11:57:20.803Z,90.02
2018-11-13T11:58:21.892Z,89.45
2018-11-13T11:59:23.255Z,89.64
2018-11-13T12:00:23.675Z,89.16
2018-11-13T12:01:25.045Z,88.59
2018-11-13T12:02:25.843Z,88.49
2018-11-13T12:03:27.644Z,88.78
2018-11-13T12:04:28.170Z,89.83
2018-11-13T12:05:28.736Z,89.45
2018-11-13T12:06:29.862Z,88.3
2018-11-13T12:07:30.975Z,87.82
2018-11-13T12:08:33.894Z,88.01
2018-11-13T12:09:33.550Z,87.44
2018-11-13T12:10:34.386Z,88.01
2018-11-13T12:11:35.013Z,87.92
2018-11-13T12:12:36.491Z,88.11
2018-11-13T12:13:36.706Z,88.49
2018-11-13T12:14:37.568Z,88.3
2018-11-13T12:15:38.384Z,87.54
2018-11-13T12:16:39.862Z,87.44
2018-11-13T12:17:40.664Z,88.01
2018-11-13T12:18:42.173Z,88.59
2018-11-13T12:19:43.023Z,88.49
2018-11-13T12:20:44.388Z,87.82
2018-11-13T12:21:44.195Z,88.26
2018-11-13T12:22:44.580Z,88.16
2018-11-13T12:23:45.662Z,87.73
2018-11-13T12:24:46.464Z,88.78
2018-11-13T12:25:47.906Z,88.83
2018-11-13T12:26:48.923Z,88.45
2018-11-13T12:27:49.445Z,88.54
2018-11-13T12:28:51.140Z,88.35
2018-11-13T12:29:50.945Z,89.59
2018-11-13T12:30:52.304Z,89.97
2018-11-13T12:31:53.109Z,89.97
2018-11-13T12:32:53.913Z,89.12
2018-11-13T12:33:54.849Z,89.78
2018-11-13T12:34:55.785Z,89.31
2018-11-13T12:35:56.140Z,89.02
2018-11-13T12:36:57.373Z,89.31
2018-11-13T12:37:58.452Z,89.12
2018-11-13T12:39:02.350Z,89.21
2018-11-13T12:40:01.996Z,89.83
2018-11-13T12:41:02.705Z,90.22
2018-11-13T12:42:03.850Z,90.69
2018-11-13T12:43:04.936Z,91.07
2018-11-13T12:44:05.289Z,90.98
2018-11-13T12:45:07.530Z,91.93
2018-11-13T12:46:06.611Z,91.64
2018-11-13T12:47:07.522Z,91.27
2018-11-13T12:48:08.913Z,91.07
2018-11-13T12:49:10.870Z,90.93
2018-11-13T12:50:12.084Z,91.64
2018-11-13T12:51:12.921Z,91.74
2018-11-13T12:52:14.402Z,91.55
2018-11-13T12:53:15.910Z,92.03
2018-11-13T12:54:15.809Z,92.32
2018-11-13T12:55:17.044Z,92.88
2018-11-13T12:56:18.753Z,92.5
2018-11-13T12:57:18.756Z,92.98
2018-11-13T12:58:22.903Z,92.88
2018-11-13T12:58:33.933Z,93.08